sensor_id;sensor_type;location;lat;lon;timestamp;temperature;humidity
20479;DHT22;10398;52.490;13.434;2022-11-04T00:01:32;11.10;99.90
20479;DHT22;10398;52.490;13.434;2022-11-04T00:03:58;11.10;99.90
20479;DHT22;10398;52.490;13.434;2022-11-04T00:06:24;11.10;99.90
20479;DHT22;10398;52.490;13.434;2022-11-04T00:08:50;11.10;99.90
20479;DHT22;10398;52.490;13.434;2022-11-04T00:11:17;11.10;99.90
20479;DHT22;10398;52.490;13.434;2022-11-04T00:14:02;11.10;99.90
20479;DHT22;10398;52.490;13.434;2022-11-04T00:16:28;11.10;99.90
20479;DHT22;10398;52.490;13.434;2022-11-04T00:19:12;11.10;99.90
20479;DHT22;10398;52.490;13.434;2022-11-04T00:21:37;11.10;99.90
20479;DHT22;10398;52.490;13.434;2022-11-04T00:24:21;11.10;99.90
20479;DHT22;10398;52.490;13.434;2022-11-04T00:27:10;11.20;99.90
20479;DHT22;10398;52.490;13.434;2022-11-04T00:29:54;11.10;99.90
20479;DHT22;10398;52.490;13.434;2022-11-04T00:32:20;11.10;99.90
20479;DHT22;10398;52.490;13.434;2022-11-04T00:35:05;11.10;99.90
20479;DHT22;10398;52.490;13.434;2022-11-04T00:37:30;11.20;99.90
20479;DHT22;10398;52.490;13.434;2022-11-04T00:39:56;11.30;99.90
20479;DHT22;10398;52.490;13.434;2022-11-04T00:42:22;11.30;99.90
20479;DHT22;10398;52.490;13.434;2022-11-04T00:44:47;11.30;99.90
20479;DHT22;10398;52.490;13.434;2022-11-04T00:47:13;11.30;99.90
20479;DHT22;10398;52.490;13.434;2022-11-04T00:49:38;11.20;99.90
20479;DHT22;10398;52.490;13.434;2022-11-04T00:52:04;11.20;99.90
20479;DHT22;10398;52.490;13.434;2022-11-04T00:54:30;11.10;99.90
20479;DHT22;10398;52.490;13.434;2022-11-04T00:56:55;11.10;99.90
20479;DHT22;10398;52.490;13.434;2022-11-04T00:59:21;11.10;99.90
20479;DHT22;10398;52.490;13.434;2022-11-04T01:01:46;11.10;99.90
20479;DHT22;10398;52.490;13.434;2022-11-04T01:04:12;11.00;99.90
20479;DHT22;10398;52.490;13.434;2022-11-04T01:06:37;10.90;99.90
20479;DHT22;10398;52.490;13.434;2022-11-04T01:09:06;10.90;99.90
20479;DHT22;10398;52.490;13.434;2022-11-04T01:11:33;11.00;99.90
20479;DHT22;10398;52.490;13.434;2022-11-04T01:13:58;10.90;99.90
20479;DHT22;10398;52.490;13.434;2022-11-04T01:16:26;10.90;99.90
20479;DHT22;10398;52.490;13.434;2022-11-04T01:18:52;10.90;99.90
20479;DHT22;10398;52.490;13.434;2022-11-04T01:21:18;10.80;99.90
20479;DHT22;10398;52.490;13.434;2022-11-04T01:23:44;10.70;99.90
20479;DHT22;10398;52.490;13.434;2022-11-04T01:26:16;10.70;99.90
20479;DHT22;10398;52.490;13.434;2022-11-04T01:28:42;10.70;99.90
20479;DHT22;10398;52.490;13.434;2022-11-04T01:31:10;10.80;99.90
20479;DHT22;10398;52.490;13.434;2022-11-04T01:33:37;10.80;99.90
20479;DHT22;10398;52.490;13.434;2022-11-04T01:36:04;10.80;99.90
20479;DHT22;10398;52.490;13.434;2022-11-04T01:38:30;10.80;99.90
20479;DHT22;10398;52.490;13.434;2022-11-04T01:40:56;10.70;99.90
20479;DHT22;10398;52.490;13.434;2022-11-04T01:43:22;10.70;99.90
20479;DHT22;10398;52.490;13.434;2022-11-04T01:46:03;10.70;99.90
20479;DHT22;10398;52.490;13.434;2022-11-04T01:48:31;10.60;99.90
20479;DHT22;10398;52.490;13.434;2022-11-04T01:50:58;10.60;99.90
20479;DHT22;10398;52.490;13.434;2022-11-04T01:53:31;10.50;99.90
20479;DHT22;10398;52.490;13.434;2022-11-04T01:55:59;10.40;99.90
20479;DHT22;10398;52.490;13.434;2022-11-04T01:58:28;10.30;99.90
20479;DHT22;10398;52.490;13.434;2022-11-04T02:00:55;10.30;99.90
20479;DHT22;10398;52.490;13.434;2022-11-04T02:03:28;10.40;99.90
20479;DHT22;10398;52.490;13.434;2022-11-04T02:05:55;10.30;99.90
20479;DHT22;10398;52.490;13.434;2022-11-04T02:08:21;10.30;99.90
20479;DHT22;10398;52.490;13.434;2022-11-04T02:11:02;10.30;99.90
20479;DHT22;10398;52.490;13.434;2022-11-04T02:13:33;10.40;99.90
20479;DHT22;10398;52.490;13.434;2022-11-04T02:32:57;10.40;99.90
20479;DHT22;10398;52.490;13.434;2022-11-04T02:38:20;10.40;99.90
20479;DHT22;10398;52.490;13.434;2022-11-04T02:46:37;10.40;99.90
20479;DHT22;10398;52.490;13.434;2022-11-04T02:49:10;10.30;99.90
20479;DHT22;10398;52.490;13.434;2022-11-04T02:51:42;10.40;99.90
20479;DHT22;10398;52.490;13.434;2022-11-04T02:54:32;10.40;99.90
20479;DHT22;10398;52.490;13.434;2022-11-04T02:57:03;10.40;99.90
20479;DHT22;10398;52.490;13.434;2022-11-04T03:02:04;10.30;99.90
20479;DHT22;10398;52.490;13.434;2022-11-04T03:04:35;10.40;99.90
20479;DHT22;10398;52.490;13.434;2022-11-04T03:07:03;10.40;99.90
20479;DHT22;10398;52.490;13.434;2022-11-04T03:09:32;10.40;99.90
20479;DHT22;10398;52.490;13.434;2022-11-04T03:12:04;10.30;99.90
20479;DHT22;10398;52.490;13.434;2022-11-04T03:14:38;10.40;99.90
20479;DHT22;10398;52.490;13.434;2022-11-04T03:17:08;10.30;99.90
20479;DHT22;10398;52.490;13.434;2022-11-04T03:19:55;10.30;99.90
20479;DHT22;10398;52.490;13.434;2022-11-04T03:22:25;10.30;99.90
20479;DHT22;10398;52.490;13.434;2022-11-04T03:24:52;10.30;99.90
20479;DHT22;10398;52.490;13.434;2022-11-04T03:27:34;10.30;99.90
20479;DHT22;10398;52.490;13.434;2022-11-04T03:30:13;10.40;99.90
20479;DHT22;10398;52.490;13.434;2022-11-04T03:32:45;10.40;99.90
20479;DHT22;10398;52.490;13.434;2022-11-04T03:35:15;10.30;99.90
20479;DHT22;10398;52.490;13.434;2022-11-04T03:37:42;10.30;99.90
20479;DHT22;10398;52.490;13.434;2022-11-04T03:40:10;10.40;99.90
20479;DHT22;10398;52.490;13.434;2022-11-04T03:42:40;10.40;99.90
20479;DHT22;10398;52.490;13.434;2022-11-04T03:45:08;10.40;99.90
20479;DHT22;10398;52.490;13.434;2022-11-04T03:47:34;10.50;99.90
20479;DHT22;10398;52.490;13.434;2022-11-04T03:50:13;10.60;99.90
20479;DHT22;10398;52.490;13.434;2022-11-04T03:52:42;10.50;99.90
20479;DHT22;10398;52.490;13.434;2022-11-04T03:55:08;10.50;99.90
20479;DHT22;10398;52.490;13.434;2022-11-04T03:57:58;10.50;99.90
20479;DHT22;10398;52.490;13.434;2022-11-04T04:00:33;10.50;99.90
20479;DHT22;10398;52.490;13.434;2022-11-04T04:03:14;10.50;99.90
20479;DHT22;10398;52.490;13.434;2022-11-04T04:05:54;10.50;99.90
20479;DHT22;10398;52.490;13.434;2022-11-04T04:08:34;10.50;99.90
20479;DHT22;10398;52.490;13.434;2022-11-04T04:14:04;10.50;99.90
20479;DHT22;10398;52.490;13.434;2022-11-04T04:16:42;10.50;99.90
20479;DHT22;10398;52.490;13.434;2022-11-04T04:19:19;10.50;99.90
20479;DHT22;10398;52.490;13.434;2022-11-04T04:21:47;10.50;99.90
20479;DHT22;10398;52.490;13.434;2022-11-04T04:24:17;10.60;99.90
20479;DHT22;10398;52.490;13.434;2022-11-04T04:27:02;10.70;99.90
20479;DHT22;10398;52.490;13.434;2022-11-04T04:29:47;10.70;99.90
20479;DHT22;10398;52.490;13.434;2022-11-04T04:32:15;10.80;99.90
20479;DHT22;10398;52.490;13.434;2022-11-04T04:34:41;10.80;99.90
20479;DHT22;10398;52.490;13.434;2022-11-04T04:37:17;10.80;99.90
20479;DHT22;10398;52.490;13.434;2022-11-04T04:39:52;10.80;99.90
20479;DHT22;10398;52.490;13.434;2022-11-04T04:42:37;10.80;99.90
20479;DHT22;10398;52.490;13.434;2022-11-04T04:45:42;10.90;99.90
20479;DHT22;10398;52.490;13.434;2022-11-04T04:48:12;10.90;99.90
20479;DHT22;10398;52.490;13.434;2022-11-04T04:50:45;10.80;99.90
20479;DHT22;10398;52.490;13.434;2022-11-04T04:53:13;10.80;99.90
20479;DHT22;10398;52.490;13.434;2022-11-04T04:55:38;10.90;99.90
20479;DHT22;10398;52.490;13.434;2022-11-04T04:58:04;11.00;99.90
20479;DHT22;10398;52.490;13.434;2022-11-04T05:00:30;11.00;99.90
20479;DHT22;10398;52.490;13.434;2022-11-04T05:02:55;10.90;99.90
20479;DHT22;10398;52.490;13.434;2022-11-04T05:05:21;11.00;99.90
20479;DHT22;10398;52.490;13.434;2022-11-04T05:07:47;10.90;99.90
20479;DHT22;10398;52.490;13.434;2022-11-04T05:10:14;10.90;99.90
20479;DHT22;10398;52.490;13.434;2022-11-04T05:12:40;10.90;99.90
20479;DHT22;10398;52.490;13.434;2022-11-04T05:15:25;10.90;99.90
20479;DHT22;10398;52.490;13.434;2022-11-04T05:17:56;10.90;99.90
20479;DHT22;10398;52.490;13.434;2022-11-04T05:20:23;10.90;99.90
20479;DHT22;10398;52.490;13.434;2022-11-04T05:22:49;10.80;99.90
20479;DHT22;10398;52.490;13.434;2022-11-04T05:25:14;10.80;99.90
20479;DHT22;10398;52.490;13.434;2022-11-04T05:27:40;10.90;99.90
20479;DHT22;10398;52.490;13.434;2022-11-04T05:30:06;10.90;99.90
20479;DHT22;10398;52.490;13.434;2022-11-04T05:32:32;10.90;99.90
20479;DHT22;10398;52.490;13.434;2022-11-04T05:34:57;11.00;99.90
20479;DHT22;10398;52.490;13.434;2022-11-04T05:37:24;11.00;99.90
20479;DHT22;10398;52.490;13.434;2022-11-04T05:39:49;11.00;99.90
20479;DHT22;10398;52.490;13.434;2022-11-04T05:42:15;11.10;99.90
20479;DHT22;10398;52.490;13.434;2022-11-04T05:44:40;11.10;99.90
20479;DHT22;10398;52.490;13.434;2022-11-04T05:47:06;11.10;99.90
20479;DHT22;10398;52.490;13.434;2022-11-04T05:49:31;11.10;99.90
20479;DHT22;10398;52.490;13.434;2022-11-04T05:51:58;11.10;99.90
20479;DHT22;10398;52.490;13.434;2022-11-04T05:54:23;11.10;99.90
20479;DHT22;10398;52.490;13.434;2022-11-04T05:56:49;11.10;99.90
20479;DHT22;10398;52.490;13.434;2022-11-04T05:59:15;11.20;99.90
20479;DHT22;10398;52.490;13.434;2022-11-04T06:01:41;11.10;99.90
20479;DHT22;10398;52.490;13.434;2022-11-04T06:04:13;11.20;99.90
20479;DHT22;10398;52.490;13.434;2022-11-04T06:06:39;11.20;99.90
20479;DHT22;10398;52.490;13.434;2022-11-04T06:09:05;11.20;99.90
20479;DHT22;10398;52.490;13.434;2022-11-04T06:11:31;11.10;99.90
20479;DHT22;10398;52.490;13.434;2022-11-04T06:13:57;11.10;99.90
20479;DHT22;10398;52.490;13.434;2022-11-04T06:16:23;11.10;99.90
20479;DHT22;10398;52.490;13.434;2022-11-04T06:18:49;11.10;99.90
20479;DHT22;10398;52.490;13.434;2022-11-04T06:23:43;11.10;99.90
20479;DHT22;10398;52.490;13.434;2022-11-04T06:26:09;11.00;99.90
20479;DHT22;10398;52.490;13.434;2022-11-04T06:28:35;11.00;99.90
20479;DHT22;10398;52.490;13.434;2022-11-04T06:31:03;11.00;99.90
20479;DHT22;10398;52.490;13.434;2022-11-04T06:33:29;11.10;99.90
20479;DHT22;10398;52.490;13.434;2022-11-04T06:35:59;11.10;99.90
20479;DHT22;10398;52.490;13.434;2022-11-04T06:38:25;11.20;99.90
20479;DHT22;10398;52.490;13.434;2022-11-04T06:40:53;11.20;99.90
20479;DHT22;10398;52.490;13.434;2022-11-04T06:43:18;11.20;99.90
20479;DHT22;10398;52.490;13.434;2022-11-04T06:45:51;11.20;99.90
20479;DHT22;10398;52.490;13.434;2022-11-04T06:48:16;11.20;99.90
20479;DHT22;10398;52.490;13.434;2022-11-04T06:50:42;11.30;99.90
20479;DHT22;10398;52.490;13.434;2022-11-04T06:53:08;11.40;99.90
20479;DHT22;10398;52.490;13.434;2022-11-04T06:55:33;11.40;99.90
20479;DHT22;10398;52.490;13.434;2022-11-04T06:57:59;11.50;99.90
20479;DHT22;10398;52.490;13.434;2022-11-04T07:00:24;11.50;99.90
20479;DHT22;10398;52.490;13.434;2022-11-04T07:02:50;11.50;99.90
20479;DHT22;10398;52.490;13.434;2022-11-04T07:05:16;11.50;99.90
20479;DHT22;10398;52.490;13.434;2022-11-04T07:07:42;11.50;99.90
20479;DHT22;10398;52.490;13.434;2022-11-04T07:10:07;11.50;99.90
20479;DHT22;10398;52.490;13.434;2022-11-04T07:12:33;11.60;99.90
20479;DHT22;10398;52.490;13.434;2022-11-04T07:14:59;11.60;99.90
20479;DHT22;10398;52.490;13.434;2022-11-04T07:17:24;11.60;99.90
20479;DHT22;10398;52.490;13.434;2022-11-04T07:19:50;11.60;99.90
20479;DHT22;10398;52.490;13.434;2022-11-04T07:22:15;11.70;99.90
20479;DHT22;10398;52.490;13.434;2022-11-04T07:24:41;11.70;99.90
20479;DHT22;10398;52.490;13.434;2022-11-04T07:27:07;11.70;99.90
20479;DHT22;10398;52.490;13.434;2022-11-04T07:29:33;11.70;99.90
20479;DHT22;10398;52.490;13.434;2022-11-04T07:31:59;11.80;99.90
20479;DHT22;10398;52.490;13.434;2022-11-04T07:34:24;11.80;99.90
20479;DHT22;10398;52.490;13.434;2022-11-04T07:36:50;11.80;99.90
20479;DHT22;10398;52.490;13.434;2022-11-04T07:39:15;11.80;99.90
20479;DHT22;10398;52.490;13.434;2022-11-04T07:41:41;11.80;99.90
20479;DHT22;10398;52.490;13.434;2022-11-04T07:44:10;11.80;99.90
20479;DHT22;10398;52.490;13.434;2022-11-04T07:46:36;11.80;99.90
20479;DHT22;10398;52.490;13.434;2022-11-04T07:49:02;11.90;99.90
20479;DHT22;10398;52.490;13.434;2022-11-04T07:51:28;11.90;99.90
20479;DHT22;10398;52.490;13.434;2022-11-04T07:53:56;11.90;99.90
20479;DHT22;10398;52.490;13.434;2022-11-04T07:56:22;11.90;99.90
20479;DHT22;10398;52.490;13.434;2022-11-04T07:58:48;12.00;99.90
20479;DHT22;10398;52.490;13.434;2022-11-04T08:01:18;12.00;99.90
20479;DHT22;10398;52.490;13.434;2022-11-04T08:03:44;12.10;99.90
20479;DHT22;10398;52.490;13.434;2022-11-04T08:06:12;12.10;99.90
20479;DHT22;10398;52.490;13.434;2022-11-04T08:08:38;12.10;99.90
20479;DHT22;10398;52.490;13.434;2022-11-04T08:11:06;12.20;99.90
20479;DHT22;10398;52.490;13.434;2022-11-04T08:13:34;12.20;99.90
20479;DHT22;10398;52.490;13.434;2022-11-04T08:16:01;12.30;99.90
20479;DHT22;10398;52.490;13.434;2022-11-04T08:18:30;12.30;99.90
20479;DHT22;10398;52.490;13.434;2022-11-04T08:20:56;12.30;99.90
20479;DHT22;10398;52.490;13.434;2022-11-04T08:23:22;12.30;99.90
20479;DHT22;10398;52.490;13.434;2022-11-04T08:25:47;12.30;99.90
20479;DHT22;10398;52.490;13.434;2022-11-04T08:28:13;12.40;99.90
20479;DHT22;10398;52.490;13.434;2022-11-04T08:31:23;12.40;99.90
20479;DHT22;10398;52.490;13.434;2022-11-04T08:33:50;12.40;99.90
20479;DHT22;10398;52.490;13.434;2022-11-04T08:36:19;12.40;99.90
20479;DHT22;10398;52.490;13.434;2022-11-04T08:38:46;12.40;99.90
20479;DHT22;10398;52.490;13.434;2022-11-04T08:41:13;12.40;99.90
20479;DHT22;10398;52.490;13.434;2022-11-04T08:43:40;12.50;99.90
20479;DHT22;10398;52.490;13.434;2022-11-04T08:46:07;12.50;99.90
20479;DHT22;10398;52.490;13.434;2022-11-04T08:48:35;12.50;99.90
20479;DHT22;10398;52.490;13.434;2022-11-04T08:51:02;12.50;99.90
20479;DHT22;10398;52.490;13.434;2022-11-04T08:53:28;12.50;99.90
20479;DHT22;10398;52.490;13.434;2022-11-04T08:55:53;12.60;99.90
20479;DHT22;10398;52.490;13.434;2022-11-04T08:58:20;12.50;99.90
20479;DHT22;10398;52.490;13.434;2022-11-04T09:00:46;12.60;99.90
20479;DHT22;10398;52.490;13.434;2022-11-04T09:03:12;12.60;99.90
20479;DHT22;10398;52.490;13.434;2022-11-04T09:05:39;12.60;99.90
20479;DHT22;10398;52.490;13.434;2022-11-04T09:08:14;12.60;99.90
20479;DHT22;10398;52.490;13.434;2022-11-04T09:10:46;12.70;99.90
20479;DHT22;10398;52.490;13.434;2022-11-04T09:13:12;12.70;99.90
20479;DHT22;10398;52.490;13.434;2022-11-04T09:15:38;12.80;99.90
20479;DHT22;10398;52.490;13.434;2022-11-04T09:18:04;12.90;99.90
20479;DHT22;10398;52.490;13.434;2022-11-04T09:20:31;12.90;99.90
20479;DHT22;10398;52.490;13.434;2022-11-04T09:22:58;12.90;99.90
20479;DHT22;10398;52.490;13.434;2022-11-04T09:25:24;13.00;99.90
20479;DHT22;10398;52.490;13.434;2022-11-04T09:27:49;13.20;99.90
20479;DHT22;10398;52.490;13.434;2022-11-04T09:30:15;13.30;99.90
20479;DHT22;10398;52.490;13.434;2022-11-04T09:32:41;13.40;99.90
20479;DHT22;10398;52.490;13.434;2022-11-04T09:35:07;13.50;99.90
20479;DHT22;10398;52.490;13.434;2022-11-04T09:37:32;13.50;99.90
20479;DHT22;10398;52.490;13.434;2022-11-04T09:39:58;13.50;99.90
20479;DHT22;10398;52.490;13.434;2022-11-04T09:42:35;13.40;99.90
20479;DHT22;10398;52.490;13.434;2022-11-04T09:45:26;13.40;99.90
20479;DHT22;10398;52.490;13.434;2022-11-04T09:48:00;13.40;99.90
20479;DHT22;10398;52.490;13.434;2022-11-04T09:50:47;13.40;99.90
20479;DHT22;10398;52.490;13.434;2022-11-04T09:53:19;13.40;99.90
20479;DHT22;10398;52.490;13.434;2022-11-04T09:56:17;13.30;99.90
20479;DHT22;10398;52.490;13.434;2022-11-04T09:58:44;13.30;99.90
20479;DHT22;10398;52.490;13.434;2022-11-04T10:01:36;13.30;99.90
20479;DHT22;10398;52.490;13.434;2022-11-04T10:07:12;13.20;99.90
20479;DHT22;10398;52.490;13.434;2022-11-04T10:10:05;13.20;99.90
20479;DHT22;10398;52.490;13.434;2022-11-04T10:12:56;13.10;99.90
20479;DHT22;10398;52.490;13.434;2022-11-04T10:15:52;13.10;99.90
20479;DHT22;10398;52.490;13.434;2022-11-04T10:18:45;13.10;99.90
20479;DHT22;10398;52.490;13.434;2022-11-04T10:21:42;13.10;99.90
20479;DHT22;10398;52.490;13.434;2022-11-04T10:31:51;13.00;99.90
20479;DHT22;10398;52.490;13.434;2022-11-04T10:34:27;13.00;99.90
20479;DHT22;10398;52.490;13.434;2022-11-04T10:36:55;12.90;99.90
20479;DHT22;10398;52.490;13.434;2022-11-04T10:39:34;13.00;99.90
20479;DHT22;10398;52.490;13.434;2022-11-04T10:42:03;13.00;99.90
20479;DHT22;10398;52.490;13.434;2022-11-04T10:44:33;13.00;99.90
20479;DHT22;10398;52.490;13.434;2022-11-04T10:49:56;13.10;99.90
20479;DHT22;10398;52.490;13.434;2022-11-04T10:52:25;13.20;99.90
20479;DHT22;10398;52.490;13.434;2022-11-04T10:54:51;13.20;99.90
20479;DHT22;10398;52.490;13.434;2022-11-04T10:57:25;13.30;99.90
20479;DHT22;10398;52.490;13.434;2022-11-04T10:59:53;13.30;99.90
20479;DHT22;10398;52.490;13.434;2022-11-04T11:07:47;13.30;99.90
20479;DHT22;10398;52.490;13.434;2022-11-04T11:10:20;13.30;99.90
20479;DHT22;10398;52.490;13.434;2022-11-04T11:20:33;13.30;99.90
20479;DHT22;10398;52.490;13.434;2022-11-04T11:23:03;13.30;99.90
20479;DHT22;10398;52.490;13.434;2022-11-04T11:25:34;13.30;99.90
20479;DHT22;10398;52.490;13.434;2022-11-04T11:28:02;13.30;99.90
20479;DHT22;10398;52.490;13.434;2022-11-04T11:35:55;13.20;99.90
20479;DHT22;10398;52.490;13.434;2022-11-04T11:38:23;13.20;99.90
20479;DHT22;10398;52.490;13.434;2022-11-04T11:40:50;13.20;99.90
20479;DHT22;10398;52.490;13.434;2022-11-04T11:43:39;13.20;99.90
20479;DHT22;10398;52.490;13.434;2022-11-04T11:46:06;13.20;99.90
20479;DHT22;10398;52.490;13.434;2022-11-04T11:48:43;13.20;99.90
20479;DHT22;10398;52.490;13.434;2022-11-04T11:51:20;13.10;99.90
20479;DHT22;10398;52.490;13.434;2022-11-04T11:56:38;13.10;99.90
20479;DHT22;10398;52.490;13.434;2022-11-04T11:59:57;13.10;99.90
20479;DHT22;10398;52.490;13.434;2022-11-04T12:02:41;13.10;99.90
20479;DHT22;10398;52.490;13.434;2022-11-04T12:05:13;13.10;99.90
20479;DHT22;10398;52.490;13.434;2022-11-04T12:08:00;13.10;99.90
20479;DHT22;10398;52.490;13.434;2022-11-04T12:15:58;13.20;99.90
20479;DHT22;10398;52.490;13.434;2022-11-04T12:21:23;13.30;99.90
20479;DHT22;10398;52.490;13.434;2022-11-04T12:29:27;13.30;99.90
20479;DHT22;10398;52.490;13.434;2022-11-04T12:45:15;13.40;99.90
20479;DHT22;10398;52.490;13.434;2022-11-04T12:47:44;13.40;99.90
20479;DHT22;10398;52.490;13.434;2022-11-04T12:53:22;13.40;99.90
20479;DHT22;10398;52.490;13.434;2022-11-04T12:56:09;13.40;99.90
20479;DHT22;10398;52.490;13.434;2022-11-04T13:01:18;13.40;99.90
20479;DHT22;10398;52.490;13.434;2022-11-04T13:03:52;13.50;99.90
20479;DHT22;10398;52.490;13.434;2022-11-04T13:09:35;13.40;99.90
20479;DHT22;10398;52.490;13.434;2022-11-04T13:12:18;13.40;99.90
20479;DHT22;10398;52.490;13.434;2022-11-04T13:14:51;13.50;99.90
20479;DHT22;10398;52.490;13.434;2022-11-04T13:17:23;13.50;99.90
20479;DHT22;10398;52.490;13.434;2022-11-04T13:19:57;13.40;99.90
20479;DHT22;10398;52.490;13.434;2022-11-04T13:22:30;13.40;99.90
20479;DHT22;10398;52.490;13.434;2022-11-04T13:25:08;13.40;99.90
20479;DHT22;10398;52.490;13.434;2022-11-04T13:27:42;13.40;99.90
20479;DHT22;10398;52.490;13.434;2022-11-04T13:32:59;13.40;99.90
20479;DHT22;10398;52.490;13.434;2022-11-04T13:35:48;13.40;99.90
20479;DHT22;10398;52.490;13.434;2022-11-04T13:38:22;13.40;99.90
20479;DHT22;10398;52.490;13.434;2022-11-04T13:43:50;13.40;99.90
20479;DHT22;10398;52.490;13.434;2022-11-04T13:49:05;13.40;99.90
20479;DHT22;10398;52.490;13.434;2022-11-04T13:54:22;13.30;99.90
20479;DHT22;10398;52.490;13.434;2022-11-04T13:56:49;13.30;99.90
20479;DHT22;10398;52.490;13.434;2022-11-04T13:59:33;13.30;99.90
20479;DHT22;10398;52.490;13.434;2022-11-04T14:04:44;13.30;99.90
20479;DHT22;10398;52.490;13.434;2022-11-04T14:07:12;13.30;99.90
20479;DHT22;10398;52.490;13.434;2022-11-04T14:24:58;13.30;99.90
20479;DHT22;10398;52.490;13.434;2022-11-04T14:27:38;13.30;99.90
20479;DHT22;10398;52.490;13.434;2022-11-04T14:30:04;13.20;99.90
20479;DHT22;10398;52.490;13.434;2022-11-04T14:32:37;13.30;99.90
20479;DHT22;10398;52.490;13.434;2022-11-04T14:35:05;13.20;99.90
20479;DHT22;10398;52.490;13.434;2022-11-04T14:37:35;13.30;99.90
20479;DHT22;10398;52.490;13.434;2022-11-04T14:40:05;13.40;99.90
20479;DHT22;10398;52.490;13.434;2022-11-04T14:42:57;13.30;99.90
20479;DHT22;10398;52.490;13.434;2022-11-04T14:45:25;13.30;99.90
20479;DHT22;10398;52.490;13.434;2022-11-04T14:48:06;13.30;99.90
20479;DHT22;10398;52.490;13.434;2022-11-04T14:50:41;13.40;99.90
20479;DHT22;10398;52.490;13.434;2022-11-04T14:53:09;13.40;99.90
20479;DHT22;10398;52.490;13.434;2022-11-04T14:55:40;13.30;99.90
20479;DHT22;10398;52.490;13.434;2022-11-04T14:58:23;13.40;99.90
20479;DHT22;10398;52.490;13.434;2022-11-04T15:00:52;13.40;99.90
20479;DHT22;10398;52.490;13.434;2022-11-04T15:05:51;13.50;99.90
20479;DHT22;10398;52.490;13.434;2022-11-04T15:08:41;13.50;99.90
20479;DHT22;10398;52.490;13.434;2022-11-04T15:13:46;13.50;99.90
20479;DHT22;10398;52.490;13.434;2022-11-04T15:16:21;13.60;99.90
20479;DHT22;10398;52.490;13.434;2022-11-04T15:18:49;13.60;99.90
20479;DHT22;10398;52.490;13.434;2022-11-04T15:21:16;13.50;99.90
20479;DHT22;10398;52.490;13.434;2022-11-04T15:23:44;13.50;99.90
20479;DHT22;10398;52.490;13.434;2022-11-04T15:26:22;13.50;99.90
20479;DHT22;10398;52.490;13.434;2022-11-04T15:28:50;13.50;99.90
20479;DHT22;10398;52.490;13.434;2022-11-04T15:31:22;13.50;99.90
20479;DHT22;10398;52.490;13.434;2022-11-04T15:33:52;13.50;99.90
20479;DHT22;10398;52.490;13.434;2022-11-04T15:36:24;13.40;99.90
20479;DHT22;10398;52.490;13.434;2022-11-04T15:39:16;13.40;99.90
20479;DHT22;10398;52.490;13.434;2022-11-04T15:41:44;13.30;99.90
20479;DHT22;10398;52.490;13.434;2022-11-04T15:44:32;13.20;99.90
20479;DHT22;10398;52.490;13.434;2022-11-04T15:47:00;13.20;99.90
20479;DHT22;10398;52.490;13.434;2022-11-04T15:49:30;13.20;99.90
20479;DHT22;10398;52.490;13.434;2022-11-04T15:52:00;13.20;99.90
20479;DHT22;10398;52.490;13.434;2022-11-04T15:54:40;13.30;99.90
20479;DHT22;10398;52.490;13.434;2022-11-04T15:57:18;13.40;99.90
20479;DHT22;10398;52.490;13.434;2022-11-04T16:02:27;13.20;99.90
20479;DHT22;10398;52.490;13.434;2022-11-04T16:07:44;13.20;99.90
20479;DHT22;10398;52.490;13.434;2022-11-04T16:13:02;13.20;99.90
20479;DHT22;10398;52.490;13.434;2022-11-04T16:15:40;13.20;99.90
20479;DHT22;10398;52.490;13.434;2022-11-04T16:20:46;13.10;99.90
20479;DHT22;10398;52.490;13.434;2022-11-04T16:23:16;13.10;99.90
20479;DHT22;10398;52.490;13.434;2022-11-04T16:25:42;13.00;99.90
20479;DHT22;10398;52.490;13.434;2022-11-04T16:28:19;13.00;99.90
20479;DHT22;10398;52.490;13.434;2022-11-04T16:30:59;13.00;99.90
20479;DHT22;10398;52.490;13.434;2022-11-04T16:33:25;13.00;99.90
20479;DHT22;10398;52.490;13.434;2022-11-04T16:35:50;13.00;99.90
20479;DHT22;10398;52.490;13.434;2022-11-04T16:38:16;13.00;99.90
20479;DHT22;10398;52.490;13.434;2022-11-04T16:40:44;13.00;99.90
20479;DHT22;10398;52.490;13.434;2022-11-04T16:43:10;12.90;99.90
20479;DHT22;10398;52.490;13.434;2022-11-04T16:45:36;12.90;99.90
20479;DHT22;10398;52.490;13.434;2022-11-04T16:48:03;12.90;99.90
20479;DHT22;10398;52.490;13.434;2022-11-04T16:50:29;12.90;99.90
20479;DHT22;10398;52.490;13.434;2022-11-04T16:52:58;12.90;99.90
20479;DHT22;10398;52.490;13.434;2022-11-04T16:55:24;13.00;99.90
20479;DHT22;10398;52.490;13.434;2022-11-04T16:57:57;13.00;99.90
20479;DHT22;10398;52.490;13.434;2022-11-04T17:00:25;13.00;99.90
20479;DHT22;10398;52.490;13.434;2022-11-04T17:02:51;13.00;99.90
20479;DHT22;10398;52.490;13.434;2022-11-04T17:05:17;13.00;99.90
20479;DHT22;10398;52.490;13.434;2022-11-04T17:07:43;13.00;99.90
20479;DHT22;10398;52.490;13.434;2022-11-04T17:10:30;13.00;99.90
20479;DHT22;10398;52.490;13.434;2022-11-04T17:12:56;13.00;99.90
20479;DHT22;10398;52.490;13.434;2022-11-04T17:15:21;13.00;99.90
20479;DHT22;10398;52.490;13.434;2022-11-04T17:17:47;13.00;99.90
20479;DHT22;10398;52.490;13.434;2022-11-04T17:20:16;13.00;99.90
20479;DHT22;10398;52.490;13.434;2022-11-04T17:22:45;13.10;99.90
20479;DHT22;10398;52.490;13.434;2022-11-04T17:25:21;13.00;99.90
20479;DHT22;10398;52.490;13.434;2022-11-04T17:27:48;13.00;99.90
20479;DHT22;10398;52.490;13.434;2022-11-04T17:30:14;13.00;99.90
20479;DHT22;10398;52.490;13.434;2022-11-04T17:32:41;13.00;99.90
20479;DHT22;10398;52.490;13.434;2022-11-04T17:35:07;13.00;99.90
20479;DHT22;10398;52.490;13.434;2022-11-04T17:37:33;13.10;99.90
20479;DHT22;10398;52.490;13.434;2022-11-04T17:39:59;13.10;99.90
20479;DHT22;10398;52.490;13.434;2022-11-04T17:42:24;13.20;99.90
20479;DHT22;10398;52.490;13.434;2022-11-04T17:45:09;13.20;99.90
20479;DHT22;10398;52.490;13.434;2022-11-04T17:47:35;13.20;99.90
20479;DHT22;10398;52.490;13.434;2022-11-04T17:50:02;13.20;99.90
20479;DHT22;10398;52.490;13.434;2022-11-04T17:52:28;13.20;99.90
20479;DHT22;10398;52.490;13.434;2022-11-04T17:54:53;13.20;99.90
20479;DHT22;10398;52.490;13.434;2022-11-04T17:57:19;13.20;99.90
20479;DHT22;10398;52.490;13.434;2022-11-04T17:59:45;13.20;99.90
20479;DHT22;10398;52.490;13.434;2022-11-04T18:02:10;13.20;99.90
20479;DHT22;10398;52.490;13.434;2022-11-04T18:04:36;13.20;99.90
20479;DHT22;10398;52.490;13.434;2022-11-04T18:07:01;13.20;99.90